createdAt,value
2019-04-28T00:01:43.175Z,7.50
2019-04-28T00:04:12.098Z,7.70
2019-04-28T00:06:41.780Z,7.83
2019-04-28T00:09:11.454Z,7.40
2019-04-28T00:11:41.743Z,8.57
2019-04-28T00:14:11.978Z,9.00
2019-04-28T00:16:41.305Z,9.37
2019-04-28T00:19:11.015Z,9.20
2019-04-28T00:21:46.889Z,8.10
2019-04-28T00:24:25.827Z,8.07
2019-04-28T00:26:58.552Z,7.33
2019-04-28T00:29:37.724Z,6.97
2019-04-28T00:31:57.503Z,6.60
2019-04-28T00:34:26.052Z,5.50
2019-04-28T00:36:56.243Z,7.03
2019-04-28T00:39:24.893Z,6.90
2019-04-28T00:41:53.508Z,6.57
2019-04-28T00:44:23.506Z,8.20
2019-04-28T00:46:52.163Z,7.80
2019-04-28T00:49:23.304Z,8.00
2019-04-28T00:51:52.027Z,8.33
2019-04-28T00:54:21.856Z,7.73
2019-04-28T00:56:51.730Z,6.83
2019-04-28T00:59:21.679Z,8.33
2019-04-28T01:01:52.168Z,7.57
2019-04-28T01:04:21.930Z,7.80
2019-04-28T01:06:51.992Z,6.80
2019-04-28T01:09:21.812Z,6.90
2019-04-28T01:11:51.166Z,6.67
2019-04-28T01:14:21.433Z,6.40
2019-04-28T01:16:51.742Z,6.20
2019-04-28T01:19:22.009Z,6.70
2019-04-28T01:22:10.504Z,5.50
2019-04-28T01:24:40.186Z,6.20
2019-04-28T01:27:30.460Z,5.03
2019-04-28T01:30:07.833Z,5.63
2019-04-28T01:32:50.586Z,5.40
2019-04-28T01:35:20.893Z,4.67
2019-04-28T01:37:50.514Z,5.00
2019-04-28T01:40:20.529Z,5.20
2019-04-28T01:42:49.972Z,4.93
2019-04-28T01:45:20.575Z,4.90
2019-04-28T01:47:50.430Z,4.70
2019-04-28T01:50:20.499Z,4.80
2019-04-28T01:52:49.944Z,5.00
2019-04-28T01:55:20.027Z,4.13
2019-04-28T01:57:49.770Z,4.80
2019-04-28T02:00:25.079Z,5.50
2019-04-28T02:02:50.543Z,5.40
2019-04-28T02:05:19.754Z,5.83
2019-04-28T02:07:50.528Z,5.93
2019-04-28T02:10:21.521Z,5.43
2019-04-28T02:12:50.350Z,6.00
2019-04-28T02:15:20.168Z,5.90
2019-04-28T02:17:51.312Z,5.23
2019-04-28T02:20:20.959Z,6.17
2019-04-28T02:22:57.198Z,4.93
2019-04-28T02:25:25.742Z,6.13
2019-04-28T02:27:57.072Z,6.30
2019-04-28T02:30:40.999Z,6.97
2019-04-28T02:32:54.800Z,6.17
2019-04-28T02:35:23.352Z,5.77
2019-04-28T02:37:51.984Z,5.33
2019-04-28T02:40:20.886Z,5.30
2019-04-28T02:42:51.772Z,4.87
2019-04-28T02:45:21.831Z,5.40
2019-04-28T02:47:52.435Z,5.70
2019-04-28T02:50:25.676Z,5.87
2019-04-28T02:53:01.341Z,6.23
2019-04-28T02:55:31.374Z,6.17
2019-04-28T02:58:01.399Z,6.20
2019-04-28T03:00:31.756Z,6.87
2019-04-28T03:03:01.459Z,6.60
2019-04-28T03:05:30.276Z,7.17
2019-04-28T03:08:01.179Z,7.20
2019-04-28T03:10:31.147Z,8.23
2019-04-28T03:13:01.015Z,7.80
2019-04-28T03:15:30.357Z,7.80
2019-04-28T03:18:01.701Z,8.47
2019-04-28T03:20:30.768Z,7.73
2019-04-28T03:23:00.971Z,8.40
2019-04-28T03:25:47.283Z,8.03
2019-04-28T03:28:23.065Z,8.53
2019-04-28T03:30:54.392Z,9.30
2019-04-28T03:33:26.163Z,9.07
2019-04-28T03:35:55.143Z,9.57
2019-04-28T03:38:27.088Z,10.37
2019-04-28T03:40:55.651Z,10.00
2019-04-28T03:43:24.342Z,10.07
2019-04-28T03:45:57.426Z,10.23
2019-04-28T03:48:26.049Z,10.67
2019-04-28T03:50:54.627Z,11.17
2019-04-28T03:53:23.189Z,11.07
2019-04-28T03:55:51.753Z,12.10
2019-04-28T03:58:23.647Z,13.13
2019-04-28T04:00:50.875Z,15.33
2019-04-28T04:03:20.973Z,14.90
2019-04-28T04:05:50.894Z,13.73
2019-04-28T04:08:20.881Z,13.50
2019-04-28T04:10:51.531Z,12.47
2019-04-28T04:13:24.565Z,13.73
2019-04-28T04:16:10.386Z,11.97
2019-04-28T04:18:43.761Z,11.23
2019-04-28T04:21:12.447Z,13.40
2019-04-28T04:23:41.472Z,11.33
2019-04-28T04:26:11.737Z,10.23
2019-04-28T04:28:41.598Z,9.83
2019-04-28T04:31:10.710Z,9.47
2019-04-28T04:33:41.078Z,9.23
2019-04-28T04:36:11.524Z,10.00
2019-04-28T04:38:43.364Z,8.50
2019-04-28T04:41:11.185Z,8.20
2019-04-28T04:43:41.551Z,8.80
2019-04-28T04:49:13.430Z,9.10
2019-04-28T04:51:43.864Z,7.97
2019-04-28T04:54:12.220Z,8.57
2019-04-28T04:56:40.775Z,8.83
2019-04-28T04:59:10.218Z,9.03
2019-04-28T05:01:43.415Z,9.70
2019-04-28T05:04:29.871Z,9.83
2019-04-28T05:06:59.685Z,10.97
2019-04-28T05:09:29.542Z,11.43
2019-04-28T05:11:59.746Z,11.53
2019-04-28T05:14:29.938Z,12.67
2019-04-28T05:17:00.662Z,12.93
2019-04-28T05:19:29.844Z,13.60
2019-04-28T05:22:00.066Z,14.40
2019-04-28T05:24:30.485Z,14.70
2019-04-28T05:26:59.669Z,13.87
2019-04-28T05:29:30.425Z,15.17
2019-04-28T05:31:59.822Z,15.37
2019-04-28T05:34:29.651Z,16.30
2019-04-28T05:37:00.546Z,15.80
2019-04-28T05:39:29.794Z,16.63
2019-04-28T05:42:00.639Z,16.97
2019-04-28T05:44:29.930Z,17.40
2019-04-28T05:46:59.580Z,17.23
2019-04-28T05:49:35.495Z,17.70
2019-04-28T05:52:21.960Z,17.33
2019-04-28T05:54:52.175Z,17.57
2019-04-28T05:57:37.134Z,17.60
2019-04-28T06:00:16.913Z,18.40
2019-04-28T06:02:55.929Z,19.00
2019-04-28T06:05:17.326Z,17.50
2019-04-28T06:07:56.430Z,18.93
2019-04-28T06:10:25.003Z,17.60
2019-04-28T06:12:53.569Z,17.57
2019-04-28T06:15:22.203Z,17.20
2019-04-28T06:17:50.771Z,18.07
2019-04-28T06:20:20.134Z,18.30
2019-04-28T06:22:49.023Z,18.30
2019-04-28T06:25:17.617Z,18.87
2019-04-28T06:27:46.161Z,18.77
2019-04-28T06:30:15.698Z,18.97
2019-04-28T06:32:44.253Z,19.10
2019-04-28T06:35:12.881Z,19.80
2019-04-28T06:37:41.512Z,18.27
2019-04-28T06:40:10.284Z,18.33
2019-04-28T06:42:38.854Z,20.17
2019-04-28T06:45:07.767Z,20.13
2019-04-28T06:47:36.323Z,20.20
2019-04-28T06:50:06.833Z,19.90
2019-04-28T06:52:35.445Z,19.77
2019-04-28T06:55:05.840Z,20.10
2019-04-28T06:57:34.394Z,19.40
2019-04-28T07:00:03.449Z,20.83
2019-04-28T07:02:51.348Z,18.67
2019-04-28T07:05:19.966Z,19.73
2019-04-28T07:07:48.592Z,19.20
2019-04-28T07:10:17.151Z,19.63
2019-04-28T07:12:45.753Z,18.80
2019-04-28T07:15:14.404Z,19.50
2019-04-28T07:17:42.974Z,20.30
2019-04-28T07:20:29.979Z,21.13
2019-04-28T07:22:58.636Z,20.37
2019-04-28T07:25:27.172Z,20.67
2019-04-28T07:27:55.767Z,19.83
2019-04-28T07:30:24.456Z,20.53
2019-04-28T07:32:53.032Z,21.20
2019-04-28T07:35:21.721Z,20.07
2019-04-28T07:37:50.274Z,20.37
2019-04-28T07:40:18.914Z,19.30
2019-04-28T07:42:47.624Z,20.70
2019-04-28T07:45:16.440Z,20.33
2019-04-28T07:47:45.072Z,19.60
2019-04-28T07:50:14.447Z,20.00
2019-04-28T07:52:44.715Z,21.80
2019-04-28T07:55:13.406Z,21.07
2019-04-28T07:57:42.006Z,19.77
2019-04-28T08:00:13.459Z,21.10
2019-04-28T08:02:42.018Z,22.03
2019-04-28T08:05:10.854Z,21.77
2019-04-28T08:07:39.437Z,21.30
2019-04-28T08:10:08.683Z,21.67
2019-04-28T08:12:37.287Z,21.23
2019-04-28T08:15:06.615Z,21.40
2019-04-28T08:17:35.172Z,22.03
2019-04-28T08:20:05.780Z,21.77
2019-04-28T08:22:34.490Z,23.43
2019-04-28T08:25:04.000Z,22.67
2019-04-28T08:27:33.174Z,21.30
2019-04-28T08:30:01.784Z,21.20
2019-04-28T08:32:31.977Z,21.67
2019-04-28T08:35:00.666Z,22.57
2019-04-28T08:37:29.237Z,21.60
2019-04-28T08:39:57.796Z,21.60
2019-04-28T08:42:26.441Z,22.33
2019-04-28T08:44:55.006Z,21.43
2019-04-28T08:47:23.636Z,22.37
2019-04-28T08:49:52.235Z,22.47
2019-04-28T08:52:20.814Z,22.43
2019-04-28T08:54:49.434Z,21.03
2019-04-28T08:57:18.258Z,22.60
2019-04-28T08:59:46.827Z,20.93
2019-04-28T09:02:15.395Z,20.80
2019-04-28T09:04:43.977Z,20.83
2019-04-28T09:07:12.622Z,21.47
2019-04-28T09:09:41.250Z,21.33
2019-04-28T09:12:10.445Z,21.83
2019-04-28T09:14:39.021Z,22.10
2019-04-28T09:17:07.592Z,21.93
2019-04-28T09:19:36.318Z,21.27
2019-04-28T09:22:05.714Z,20.07
2019-04-28T09:24:34.354Z,21.20
2019-04-28T09:27:02.998Z,20.87
2019-04-28T09:29:31.563Z,21.10
2019-04-28T09:32:00.184Z,21.53
2019-04-28T09:34:29.575Z,22.10
2019-04-28T09:36:58.145Z,21.37
2019-04-28T09:39:43.694Z,21.43
2019-04-28T09:42:31.786Z,21.37
2019-04-28T09:45:03.192Z,20.70
2019-04-28T09:47:31.771Z,21.23
2019-04-28T09:50:00.416Z,21.40
2019-04-28T09:52:29.059Z,21.63
2019-04-28T09:54:58.380Z,21.13
2019-04-28T09:57:26.939Z,21.17
2019-04-28T09:59:56.169Z,20.67
2019-04-28T10:02:24.815Z,22.87
2019-04-28T10:04:53.378Z,21.47
2019-04-28T10:07:22.330Z,22.23
2019-04-28T10:09:50.886Z,22.43
2019-04-28T10:12:26.893Z,23.27
2019-04-28T10:14:49.966Z,23.30
2019-04-28T10:17:47.996Z,24.20
2019-04-28T10:20:18.975Z,23.57
2019-04-28T10:22:47.608Z,23.77
2019-04-28T10:25:17.510Z,22.60
2019-04-28T10:27:46.793Z,23.13
2019-04-28T10:30:15.683Z,24.07
2019-04-28T10:32:44.308Z,24.23
2019-04-28T10:35:15.032Z,24.40
2019-04-28T10:37:45.581Z,24.67
2019-04-28T10:40:24.250Z,24.70
2019-04-28T10:42:52.806Z,24.60
2019-04-28T10:45:23.537Z,25.40
2019-04-28T10:47:52.101Z,24.13
2019-04-28T10:50:20.780Z,24.80
2019-04-28T10:52:49.345Z,25.10
2019-04-28T10:55:17.918Z,25.93
2019-04-28T10:57:46.531Z,26.33
2019-04-28T11:00:16.869Z,24.97
2019-04-28T11:02:45.460Z,26.33
2019-04-28T11:05:42.218Z,24.60
2019-04-28T11:08:13.370Z,25.37
2019-04-28T11:10:41.954Z,24.87
2019-04-28T11:13:10.956Z,24.67
2019-04-28T11:15:39.536Z,25.90
2019-04-28T11:18:10.166Z,25.13
2019-04-28T11:20:38.762Z,25.70
2019-04-28T11:23:07.489Z,26.27
2019-04-28T11:25:36.590Z,26.37
2019-04-28T11:28:05.996Z,25.30
2019-04-28T11:30:35.135Z,25.67
2019-04-28T11:33:08.226Z,26.50
2019-04-28T11:35:39.292Z,26.10
2019-04-28T11:38:07.928Z,27.23
2019-04-28T11:40:36.469Z,27.47
2019-04-28T11:43:05.127Z,27.27
2019-04-28T11:45:33.679Z,27.23
2019-04-28T11:48:02.316Z,28.03
2019-04-28T11:50:30.928Z,27.47
2019-04-28T11:52:59.508Z,27.83
2019-04-28T11:55:28.127Z,28.03
2019-04-28T11:57:57.126Z,28.33
2019-04-28T12:00:29.506Z,27.83
2019-04-28T12:02:57.850Z,28.10
2019-04-28T12:05:34.234Z,28.37
2019-04-28T12:07:58.361Z,28.17
2019-04-28T12:10:34.334Z,28.83
2019-04-28T12:13:10.410Z,27.13
2019-04-28T12:15:50.948Z,27.43
2019-04-28T12:18:37.565Z,28.13
2019-04-28T12:21:06.704Z,28.20
2019-04-28T12:23:35.267Z,27.73
2019-04-28T12:26:03.891Z,28.23
2019-04-28T12:28:32.654Z,27.23
2019-04-28T12:31:03.208Z,27.13
2019-04-28T12:33:31.497Z,26.53
2019-04-28T12:36:01.039Z,25.70
2019-04-28T12:38:29.690Z,23.93
2019-04-28T12:40:58.513Z,24.17
2019-04-28T12:43:27.627Z,22.27
2019-04-28T12:45:56.182Z,20.33
2019-04-28T12:48:24.761Z,19.33
2019-04-28T12:50:54.474Z,18.23
2019-04-28T12:53:23.915Z,17.90
2019-04-28T12:55:52.617Z,16.33
2019-04-28T12:58:21.196Z,16.13
2019-04-28T13:01:03.411Z,16.97
2019-04-28T13:03:33.838Z,15.13
2019-04-28T13:06:05.941Z,15.03
2019-04-28T13:08:34.248Z,15.40
2019-04-28T13:11:02.894Z,14.60
2019-04-28T13:13:31.499Z,14.00
2019-04-28T13:16:00.456Z,13.90
2019-04-28T13:18:29.034Z,13.63
2019-04-28T13:20:59.108Z,14.20
2019-04-28T13:23:28.243Z,13.53
2019-04-28T13:25:56.833Z,14.10
2019-04-28T13:28:26.234Z,13.53
2019-04-28T13:30:54.806Z,14.53
2019-04-28T13:33:23.363Z,14.07
2019-04-28T13:35:52.060Z,14.50
2019-04-28T13:38:20.643Z,14.73
2019-04-28T13:40:49.295Z,13.80
2019-04-28T13:43:17.911Z,14.17
2019-04-28T13:45:46.613Z,14.70
2019-04-28T13:48:15.174Z,14.80
2019-04-28T13:50:43.759Z,16.40
2019-04-28T13:53:12.318Z,17.73
2019-04-28T13:55:48.372Z,17.83
2019-04-28T13:58:18.705Z,18.97
2019-04-28T14:01:04.838Z,18.97
2019-04-28T14:03:37.841Z,19.13
2019-04-28T14:06:09.723Z,18.57
2019-04-28T14:08:38.312Z,17.90
2019-04-28T14:11:06.923Z,18.13
2019-04-28T14:13:35.562Z,18.10
2019-04-28T14:16:04.177Z,17.97
2019-04-28T14:18:32.773Z,19.50
2019-04-28T14:21:01.450Z,20.63
2019-04-28T14:23:30.006Z,20.00
2019-04-28T14:25:58.554Z,19.53
2019-04-28T14:28:27.154Z,19.43
2019-04-28T14:30:55.726Z,19.80
2019-04-28T14:33:24.353Z,19.27
2019-04-28T14:35:52.963Z,18.93
2019-04-28T14:38:21.517Z,18.87
2019-04-28T14:40:50.136Z,18.87
2019-04-28T14:43:18.791Z,18.40
2019-04-28T14:45:47.352Z,17.47
2019-04-28T14:48:15.995Z,18.60
2019-04-28T14:50:44.568Z,17.53
2019-04-28T14:53:13.214Z,17.63
2019-04-28T14:55:41.780Z,17.53
2019-04-28T14:58:10.448Z,17.00
2019-04-28T15:00:40.905Z,16.63
2019-04-28T15:03:11.653Z,16.63
2019-04-28T15:05:58.591Z,16.47
2019-04-28T15:08:40.807Z,16.27
2019-04-28T15:11:11.098Z,16.90
2019-04-28T15:13:39.668Z,16.93
2019-04-28T15:16:08.239Z,15.80
2019-04-28T15:18:36.870Z,16.30
2019-04-28T15:21:05.566Z,16.33
2019-04-28T15:23:34.142Z,16.53
2019-04-28T15:26:02.774Z,15.97
2019-04-28T15:28:31.329Z,15.43
2019-04-28T15:30:59.964Z,15.53
2019-04-28T15:33:29.343Z,14.73
2019-04-28T15:35:57.895Z,14.93
2019-04-28T15:38:26.490Z,14.67
2019-04-28T15:40:55.242Z,14.60
2019-04-28T15:43:23.804Z,13.43
2019-04-28T15:45:52.446Z,13.93
2019-04-28T15:48:21.111Z,14.30
2019-04-28T15:50:49.746Z,13.63
2019-04-28T15:53:18.293Z,13.20
2019-04-28T15:56:00.526Z,14.00
2019-04-28T15:58:29.555Z,13.20
2019-04-28T16:00:58.702Z,12.80
2019-04-28T16:03:27.926Z,13.13
2019-04-28T16:06:06.224Z,14.13
2019-04-28T16:08:34.968Z,13.07
2019-04-28T16:11:04.167Z,12.93
2019-04-28T16:13:32.731Z,13.00
2019-04-28T16:16:01.390Z,13.23
2019-04-28T16:18:30.007Z,13.63
2019-04-28T16:20:58.847Z,13.93
2019-04-28T16:23:27.473Z,13.83
2019-04-28T16:25:56.055Z,14.10
2019-04-28T16:28:24.675Z,13.33
2019-04-28T16:30:53.239Z,14.60
2019-04-28T16:33:21.872Z,14.13
2019-04-28T16:35:50.413Z,14.17
2019-04-28T16:38:18.961Z,14.17
2019-04-28T16:40:54.000Z,14.03
2019-04-28T16:43:28.511Z,14.47
2019-04-28T16:45:57.146Z,14.40
2019-04-28T16:48:25.712Z,14.27
2019-04-28T16:50:54.277Z,14.10
2019-04-28T16:53:23.176Z,13.80
2019-04-28T16:55:53.369Z,13.77
2019-04-28T16:58:35.473Z,13.77
2019-04-28T17:01:21.997Z,13.83
2019-04-28T17:03:50.835Z,13.73
2019-04-28T17:06:19.417Z,14.47
2019-04-28T17:08:48.013Z,13.70
2019-04-28T17:11:16.623Z,14.03
2019-04-28T17:13:45.203Z,13.93
2019-04-28T17:16:13.794Z,15.03
2019-04-28T17:18:42.418Z,14.53
2019-04-28T17:21:10.994Z,15.10
2019-04-28T17:23:39.571Z,14.87
2019-04-28T17:26:11.240Z,15.27
2019-04-28T17:28:38.818Z,15.00
2019-04-28T17:31:08.035Z,15.60
2019-04-28T17:33:37.258Z,15.90
2019-04-28T17:36:05.840Z,15.90
2019-04-28T17:38:34.485Z,16.33
2019-04-28T17:41:03.198Z,16.20
2019-04-28T17:43:31.764Z,17.27
2019-04-28T17:46:00.358Z,16.10
2019-04-28T17:48:33.487Z,17.10
2019-04-28T17:51:02.082Z,17.57
2019-04-28T17:53:30.643Z,16.53
2019-04-28T17:55:59.745Z,16.93
2019-04-28T17:58:28.322Z,17.37
2019-04-28T18:00:58.594Z,17.23
2019-04-28T18:03:34.879Z,18.03
2019-04-28T18:06:21.394Z,18.47
2019-04-28T18:08:50.302Z,18.03
2019-04-28T18:11:19.134Z,17.30
2019-04-28T18:13:47.695Z,17.20
2019-04-28T18:16:34.254Z,16.77
2019-04-28T18:19:07.471Z,17.37
2019-04-28T18:21:36.762Z,17.60
2019-04-28T18:24:05.398Z,17.67
2019-04-28T18:26:33.955Z,17.77
2019-04-28T18:29:02.755Z,16.93
2019-04-28T18:31:44.707Z,17.13
2019-04-28T18:34:17.707Z,16.67
2019-04-28T18:37:03.963Z,16.97
2019-04-28T18:39:43.002Z,15.43
2019-04-28T18:42:31.115Z,15.77
2019-04-28T18:44:59.706Z,16.37
2019-04-28T18:47:28.282Z,16.33
2019-04-28T18:49:56.846Z,15.90
2019-04-28T18:52:27.107Z,16.03
2019-04-28T18:54:55.913Z,16.50
2019-04-28T18:57:24.463Z,15.93
2019-04-28T18:59:53.121Z,16.43
2019-04-28T19:02:29.053Z,17.40
2019-04-28T19:04:57.698Z,16.80
2019-04-28T19:07:33.772Z,17.10
2019-04-28T19:10:07.020Z,17.33
2019-04-28T19:12:37.216Z,16.97
2019-04-28T19:15:24.004Z,18.23
2019-04-28T19:17:54.305Z,18.97
2019-04-28T19:20:22.877Z,18.70
2019-04-28T19:22:51.510Z,18.97
2019-04-28T19:25:20.076Z,19.00
2019-04-28T19:27:48.703Z,19.03
2019-04-28T19:30:17.350Z,19.43
2019-04-28T19:32:46.264Z,18.50
2019-04-28T19:35:14.837Z,18.73
2019-04-28T19:37:43.475Z,19.27
2019-04-28T19:40:12.310Z,18.90
2019-04-28T19:42:40.947Z,19.70
2019-04-28T19:45:12.111Z,19.57
2019-04-28T19:47:41.151Z,19.30
2019-04-28T19:50:10.054Z,18.33
2019-04-28T19:52:40.988Z,17.67
2019-04-28T19:55:10.618Z,18.10
2019-04-28T19:57:49.893Z,19.10
2019-04-28T20:00:27.181Z,19.60
2019-04-28T20:02:56.407Z,19.93
2019-04-28T20:05:25.036Z,19.93
2019-04-28T20:07:53.602Z,18.63
2019-04-28T20:10:22.431Z,19.07
2019-04-28T20:12:51.044Z,19.10
2019-04-28T20:15:19.659Z,19.20
2019-04-28T20:17:48.791Z,19.10
2019-04-28T20:20:17.480Z,18.77
2019-04-28T20:22:46.078Z,19.57
2019-04-28T20:25:14.736Z,20.17
2019-04-28T20:27:43.343Z,20.00
2019-04-28T20:30:12.679Z,19.47
2019-04-28T20:32:46.077Z,19.60
2019-04-28T20:35:17.612Z,19.00
2019-04-28T20:37:57.194Z,18.00
2019-04-28T20:40:30.153Z,17.20
2019-04-28T20:43:02.016Z,15.33
2019-04-28T20:45:30.699Z,13.60
2019-04-28T20:47:59.338Z,14.13
2019-04-28T20:50:28.016Z,13.10
2019-04-28T20:52:56.599Z,13.87
2019-04-28T20:55:25.152Z,12.50
2019-04-28T20:57:54.122Z,13.10
2019-04-28T21:00:22.690Z,12.10
2019-04-28T21:02:51.253Z,13.13
2019-04-28T21:05:39.519Z,12.57
2019-04-28T21:08:08.075Z,12.23
2019-04-28T21:10:38.298Z,11.50
2019-04-28T21:13:07.126Z,11.40
2019-04-28T21:15:35.685Z,11.30
2019-04-28T21:18:04.409Z,10.63
2019-04-28T21:20:33.104Z,11.20
2019-04-28T21:23:01.738Z,11.37
2019-04-28T21:25:30.374Z,11.47
2019-04-28T21:27:58.980Z,10.47
2019-04-28T21:30:27.533Z,10.90
2019-04-28T21:32:56.091Z,10.73
2019-04-28T21:35:24.990Z,11.03
2019-04-28T21:37:53.626Z,11.20
2019-04-28T21:40:22.695Z,10.63
2019-04-28T21:42:53.001Z,10.80
2019-04-28T21:45:39.563Z,11.03
2019-04-28T21:48:08.302Z,9.97
2019-04-28T21:50:36.866Z,10.20
2019-04-28T21:53:05.427Z,10.73
2019-04-28T21:55:34.083Z,9.83
2019-04-28T21:58:02.647Z,9.87
2019-04-28T22:00:41.840Z,10.13
2019-04-28T22:03:10.409Z,10.63
2019-04-28T22:05:38.990Z,10.53
2019-04-28T22:08:07.588Z,10.17
2019-04-28T22:10:36.189Z,10.07
2019-04-28T22:13:04.757Z,10.27
2019-04-28T22:15:33.428Z,9.93
2019-04-28T22:18:02.007Z,10.20
2019-04-28T22:20:30.627Z,9.87
2019-04-28T22:23:00.905Z,10.43
2019-04-28T22:25:29.473Z,10.70
2019-04-28T22:27:58.059Z,10.27
2019-04-28T22:30:26.660Z,9.93
2019-04-28T22:32:55.237Z,10.87
2019-04-28T22:35:23.829Z,10.50
2019-04-28T22:37:52.397Z,10.37
2019-04-28T22:40:20.973Z,10.57
2019-04-28T22:42:49.598Z,10.17
2019-04-28T22:45:18.621Z,10.23
2019-04-28T22:47:47.185Z,10.03
2019-04-28T22:50:40.084Z,10.57
2019-04-28T22:53:08.721Z,10.37
2019-04-28T22:55:38.929Z,10.67
2019-04-28T22:58:15.137Z,10.50
2019-04-28T23:00:47.921Z,10.83
2019-04-28T23:03:18.245Z,10.67
2019-04-28T23:05:46.820Z,10.57
2019-04-28T23:08:15.397Z,11.77
2019-04-28T23:10:44.052Z,10.33
2019-04-28T23:13:12.698Z,11.00
2019-04-28T23:15:41.634Z,10.90
2019-04-28T23:18:10.281Z,10.80
2019-04-28T23:20:40.497Z,11.50
2019-04-28T23:23:10.355Z,10.57
2019-04-28T23:25:38.934Z,11.23
2019-04-28T23:28:07.520Z,11.33
2019-04-28T23:30:39.320Z,10.97
2019-04-28T23:33:07.903Z,11.20
2019-04-28T23:35:36.555Z,11.37
2019-04-28T23:38:05.284Z,11.10
2019-04-28T23:40:35.946Z,11.53
2019-04-28T23:43:07.120Z,11.70
2019-04-28T23:45:35.948Z,12.10
2019-04-28T23:48:04.717Z,11.50
2019-04-28T23:50:51.165Z,11.23
2019-04-28T23:53:21.412Z,12.00
2019-04-28T23:55:50.173Z,11.80
2019-04-28T23:58:18.740Z,10.97
